createdAt,value
2018-04-28T00:00:20.963Z,1.50
2018-04-28T00:02:50.085Z,1.23
2018-04-28T00:05:20.906Z,1.13
2018-04-28T00:11:04.218Z,1.27
2018-04-28T00:13:33.350Z,1.20
2018-04-28T00:16:07.927Z,1.20
2018-04-28T00:18:40.344Z,1.23
2018-04-28T00:24:03.376Z,1.10
2018-04-28T00:26:32.488Z,1.40
2018-04-28T00:29:04.890Z,1.33
2018-04-28T00:31:42.805Z,1.37
2018-04-28T00:34:11.910Z,1.03
2018-04-28T00:39:52.959Z,1.20
2018-04-28T00:42:25.167Z,1.07
2018-04-28T00:44:54.467Z,1.00
2018-04-28T00:47:25.505Z,1.30
2018-04-28T00:50:03.065Z,1.10
2018-04-28T00:52:32.565Z,0.97
2018-04-28T00:55:12.314Z,1.20
2018-04-28T00:57:55.139Z,1.70
2018-04-28T01:00:49.005Z,1.33
2018-04-28T01:03:18.748Z,1.13
2018-04-28T01:06:02.318Z,1.00
2018-04-28T01:08:50.043Z,1.27
2018-04-28T02:07:59.351Z,1.10
2018-04-28T02:10:48.266Z,1.17
2018-04-28T02:13:34.387Z,0.90
2018-04-28T02:16:19.794Z,0.93
2018-04-28T02:19:03.164Z,1.10
2018-04-28T02:21:53.520Z,1.07
2018-04-28T02:48:50.203Z,1.20
2018-04-28T03:05:36.228Z,1.07
2018-04-28T03:08:05.978Z,1.40
2018-04-28T03:10:58.410Z,1.23
2018-04-28T03:13:45.427Z,0.90
2018-04-28T03:16:30.813Z,1.10
2018-04-28T03:19:23.177Z,1.07
2018-04-28T03:21:55.462Z,1.20
2018-04-28T03:24:46.149Z,1.00
2018-04-28T03:27:16.811Z,1.00
2018-04-28T03:30:06.510Z,0.90
2018-04-28T03:46:46.531Z,1.13
2018-04-28T03:49:21.802Z,1.50
2018-04-28T03:51:51.487Z,1.40
2018-04-28T03:54:40.770Z,1.00
2018-04-28T03:57:35.186Z,1.10
2018-04-28T04:00:16.806Z,1.23
2018-04-28T04:02:57.784Z,1.23
2018-04-28T04:05:45.534Z,1.20
2018-04-28T04:08:14.184Z,1.20
2018-04-28T04:11:04.508Z,1.50
2018-04-28T04:16:59.505Z,1.03
2018-04-28T04:19:51.684Z,1.13
2018-04-28T04:22:39.744Z,1.33
2018-04-28T04:28:57.573Z,1.40
2018-04-28T04:31:46.413Z,1.10
2018-04-28T04:38:04.599Z,1.10
2018-04-28T04:40:44.703Z,1.27
2018-04-28T04:43:20.388Z,1.17
2018-04-28T04:46:07.199Z,1.30
2018-04-28T04:48:50.723Z,1.00
2018-04-28T04:51:32.494Z,1.20
2018-04-28T04:54:18.862Z,1.40
2018-04-28T04:57:03.101Z,1.47
2018-04-28T04:59:44.814Z,1.00
2018-04-28T05:02:25.778Z,1.20
2018-04-28T05:05:16.103Z,1.13
2018-04-28T05:07:49.653Z,1.10
2018-04-28T05:10:39.170Z,1.47
2018-04-28T05:13:19.759Z,1.60
2018-04-28T05:16:11.989Z,1.03
2018-04-28T06:05:05.497Z,1.40
2018-04-28T06:07:44.571Z,1.50
2018-04-28T06:10:16.463Z,1.30
2018-04-28T06:12:48.281Z,1.40
2018-04-28T06:15:25.711Z,1.60
2018-04-28T06:18:06.357Z,1.27
2018-04-28T06:20:42.763Z,1.27
2018-04-28T06:23:11.391Z,1.30
2018-04-28T06:25:39.646Z,1.20
2018-04-28T06:28:11.494Z,1.47
2018-04-28T06:30:43.754Z,1.00
2018-04-28T06:33:11.924Z,1.10
2018-04-28T06:35:41.790Z,1.23
2018-04-28T06:38:10.587Z,1.10
2018-04-28T06:40:38.767Z,1.10
2018-04-28T06:43:07.559Z,1.50
2018-04-28T06:45:36.606Z,1.00
2018-04-28T06:48:06.283Z,1.33
2018-04-28T06:50:35.501Z,1.27
2018-04-28T06:53:05.211Z,1.30
2018-04-28T06:55:36.247Z,1.30
2018-04-28T06:58:04.554Z,1.10
2018-04-28T07:00:34.450Z,1.43
2018-04-28T07:03:02.646Z,0.87
2018-04-28T07:05:31.885Z,1.50
2018-04-28T07:08:01.396Z,1.27
2018-04-28T07:10:29.511Z,1.83
2018-04-28T07:12:58.732Z,1.60
2018-04-28T07:15:48.461Z,1.20
2018-04-28T07:18:17.154Z,1.23
2018-04-28T07:20:46.316Z,1.53
2018-04-28T07:23:15.213Z,1.23
2018-04-28T07:25:46.229Z,1.60
2018-04-28T07:28:16.022Z,2.03
2018-04-28T07:30:44.158Z,2.07
2018-04-28T07:33:14.957Z,2.57
2018-04-28T07:35:43.642Z,2.87
2018-04-28T07:38:15.806Z,2.70
2018-04-28T07:40:44.358Z,2.20
2018-04-28T07:43:12.550Z,1.90
2018-04-28T07:45:40.695Z,1.90
2018-04-28T07:48:08.811Z,2.23
2018-04-28T07:50:40.063Z,1.90
2018-04-28T07:53:09.115Z,2.00
2018-04-28T07:55:37.230Z,2.27
2018-04-28T07:58:07.555Z,2.70
2018-04-28T08:00:36.051Z,2.10
2018-04-28T08:03:08.793Z,2.23
2018-04-28T08:05:37.181Z,1.80
2018-04-28T08:08:05.913Z,2.17
2018-04-28T08:10:34.952Z,2.00
2018-04-28T08:13:05.058Z,1.97
2018-04-28T08:15:33.896Z,1.80
2018-04-28T08:18:02.739Z,1.80
2018-04-28T08:20:32.276Z,2.10
2018-04-28T08:23:00.384Z,1.83
2018-04-28T08:25:29.142Z,1.90
2018-04-28T08:27:58.179Z,1.87
2018-04-28T08:30:43.853Z,1.70
2018-04-28T08:33:14.771Z,1.97
2018-04-28T08:35:43.822Z,2.00
2018-04-28T08:38:12.894Z,1.80
2018-04-28T08:40:45.644Z,1.63
2018-04-28T08:43:14.927Z,2.30
2018-04-28T08:45:43.932Z,2.07
2018-04-28T08:48:12.956Z,2.43
2018-04-28T08:50:45.866Z,2.10
2018-04-28T08:53:15.448Z,2.00
2018-04-28T08:55:45.151Z,2.03
2018-04-28T08:58:19.976Z,2.47
2018-04-28T09:01:04.403Z,3.20
2018-04-28T09:03:33.427Z,2.53
2018-04-28T09:06:02.716Z,3.30
2018-04-28T09:08:32.069Z,3.90
2018-04-28T09:14:00.771Z,3.07
2018-04-28T09:16:29.942Z,3.80
2018-04-28T09:19:00.696Z,7.30
2018-04-28T09:21:30.262Z,12.00
2018-04-28T09:26:59.369Z,8.87
2018-04-28T09:29:28.634Z,6.30
2018-04-28T09:31:57.806Z,3.90
2018-04-28T09:34:26.341Z,4.50
2018-04-28T09:36:54.739Z,5.10
2018-04-28T09:39:24.611Z,3.90
2018-04-28T09:41:56.005Z,4.17
2018-04-28T09:44:30.911Z,3.10
2018-04-28T09:47:00.509Z,2.63
2018-04-28T09:49:29.446Z,2.37
2018-04-28T09:51:59.108Z,2.73
2018-04-28T09:54:28.554Z,2.50
2018-04-28T09:57:05.011Z,2.57
2018-04-28T09:59:35.213Z,2.77
2018-04-28T10:02:09.317Z,3.30
2018-04-28T10:04:39.606Z,2.97
2018-04-28T10:07:10.861Z,3.03
2018-04-28T10:09:41.006Z,2.80
2018-04-28T10:12:09.399Z,2.10
2018-04-28T10:14:39.651Z,2.53
2018-04-28T10:17:08.030Z,2.50
2018-04-28T10:19:38.098Z,2.70
2018-04-28T10:22:06.999Z,2.50
2018-04-28T10:24:36.830Z,2.93
2018-04-28T10:27:07.193Z,2.23
2018-04-28T10:29:35.763Z,2.53
2018-04-28T10:32:04.219Z,3.13
2018-04-28T10:34:33.462Z,2.30
2018-04-28T10:37:01.816Z,2.07
2018-04-28T10:39:32.036Z,2.13
2018-04-28T10:42:01.200Z,2.23
2018-04-28T10:44:29.566Z,1.77
2018-04-28T10:46:58.720Z,2.40
2018-04-28T10:49:28.290Z,2.37
2018-04-28T10:51:57.455Z,2.20
2018-04-28T10:54:25.835Z,2.37
2018-04-28T10:56:55.401Z,2.20
2018-04-28T10:59:25.243Z,2.00
2018-04-28T11:01:56.642Z,2.33
2018-04-28T11:04:26.769Z,2.10
2018-04-28T11:06:55.953Z,2.27
2018-04-28T11:09:24.526Z,2.77
2018-04-28T11:11:54.784Z,2.50
2018-04-28T11:14:24.839Z,3.07
2018-04-28T11:16:55.300Z,2.37
2018-04-28T11:19:24.423Z,2.47
2018-04-28T11:21:53.519Z,2.67
2018-04-28T11:24:22.781Z,2.63
2018-04-28T11:26:51.414Z,2.73
2018-04-28T11:29:20.123Z,1.93
2018-04-28T11:31:49.498Z,2.20
2018-04-28T11:34:17.866Z,2.37
2018-04-28T11:36:51.774Z,2.30
2018-04-28T11:39:21.119Z,2.23
2018-04-28T11:41:51.039Z,2.17
2018-04-28T11:44:20.959Z,2.40
2018-04-28T11:46:51.893Z,2.13
2018-04-28T11:49:23.543Z,2.43
2018-04-28T11:51:53.562Z,2.20
2018-04-28T11:54:24.319Z,1.90
2018-04-28T11:56:54.219Z,2.40
2018-04-28T11:59:24.023Z,2.00
2018-04-28T12:01:53.635Z,2.23
2018-04-28T12:04:23.808Z,2.60
2018-04-28T12:06:52.484Z,2.37
2018-04-28T12:09:22.527Z,2.73
2018-04-28T12:11:53.297Z,2.00
2018-04-28T12:14:21.991Z,2.03
2018-04-28T12:16:53.742Z,1.97
2018-04-28T12:19:23.249Z,1.70
2018-04-28T12:21:55.253Z,2.00
2018-04-28T12:24:25.880Z,1.77
2018-04-28T12:26:58.719Z,2.23
2018-04-28T12:29:28.271Z,2.20
2018-04-28T12:32:07.755Z,1.93
2018-04-28T12:34:38.598Z,2.50
2018-04-28T12:37:08.430Z,1.73
2018-04-28T12:39:36.995Z,2.10
2018-04-28T12:42:07.961Z,1.50
2018-04-28T12:44:40.091Z,2.60
2018-04-28T12:47:15.443Z,2.17
2018-04-28T12:49:45.283Z,1.93
2018-04-28T12:52:21.903Z,1.67
2018-04-28T12:54:51.127Z,1.67
2018-04-28T12:57:23.146Z,1.67
2018-04-28T12:59:52.795Z,2.13
2018-04-28T13:02:38.054Z,1.70
2018-04-28T13:05:07.118Z,2.40
2018-04-28T13:07:35.506Z,1.90
2018-04-28T13:10:04.149Z,1.93
2018-04-28T13:12:34.963Z,1.90
2018-04-28T13:15:04.215Z,2.03
2018-04-28T13:17:34.280Z,2.00
2018-04-28T13:20:03.665Z,1.80
2018-04-28T13:22:32.340Z,2.00
2018-04-28T13:25:01.801Z,2.13
2018-04-28T13:27:30.361Z,1.90
2018-04-28T13:29:59.579Z,1.80
2018-04-28T13:32:28.619Z,2.23
2018-04-28T13:34:57.021Z,1.70
2018-04-28T13:37:27.299Z,2.70
2018-04-28T13:39:58.735Z,2.37
2018-04-28T13:42:27.590Z,2.10
2018-04-28T13:44:56.174Z,1.50
2018-04-28T13:47:24.863Z,1.60
2018-04-28T13:49:53.932Z,1.83
2018-04-28T13:52:23.494Z,2.03
2018-04-28T13:54:51.968Z,1.30
2018-04-28T13:57:20.329Z,2.10
2018-04-28T13:59:53.145Z,2.03
2018-04-28T14:02:24.163Z,1.70
2018-04-28T14:04:57.169Z,1.80
2018-04-28T14:07:28.055Z,2.30
2018-04-28T14:09:57.167Z,1.67
2018-04-28T14:12:25.561Z,1.60
2018-04-28T14:14:54.499Z,1.30
2018-04-28T14:17:25.605Z,1.90
2018-04-28T14:19:54.460Z,1.83
2018-04-28T14:22:22.870Z,1.90
2018-04-28T14:24:51.175Z,1.60
2018-04-28T14:27:22.490Z,1.40
2018-04-28T14:29:52.638Z,1.77
2018-04-28T14:32:21.946Z,1.83
2018-04-28T14:34:50.501Z,2.27
2018-04-28T14:37:20.120Z,1.70
2018-04-28T14:39:49.406Z,1.50
2018-04-28T14:42:17.837Z,1.73
2018-04-28T14:44:57.968Z,1.67
2018-04-28T14:47:27.181Z,1.53
2018-04-28T14:50:00.808Z,1.70
2018-04-28T14:52:31.119Z,1.50
2018-04-28T14:54:59.610Z,1.50
2018-04-28T14:57:30.530Z,1.60
2018-04-28T15:00:12.829Z,1.47
2018-04-28T15:02:41.478Z,1.60
2018-04-28T15:05:10.454Z,1.47
2018-04-28T15:07:39.291Z,1.80
2018-04-28T15:10:13.866Z,1.60
2018-04-28T15:15:41.958Z,1.80
2018-04-28T15:18:26.433Z,1.77
2018-04-28T15:21:00.276Z,1.50
2018-04-28T15:23:50.927Z,1.90
2018-04-28T15:26:21.743Z,1.60
2018-04-28T15:37:32.260Z,2.07
2018-04-28T15:40:27.057Z,2.60
2018-04-28T17:22:39.200Z,1.40
2018-04-28T17:25:09.479Z,1.60
2018-04-28T17:27:39.801Z,1.77
2018-04-28T17:30:08.479Z,1.33
2018-04-28T17:32:36.766Z,1.40
2018-04-28T17:35:06.176Z,1.87
2018-04-28T17:37:34.515Z,1.60
2018-04-28T17:40:03.726Z,1.60
2018-04-28T17:42:41.091Z,1.60
2018-04-28T17:45:11.017Z,1.60
2018-04-28T17:47:40.918Z,1.87
2018-04-28T17:50:09.249Z,1.70
2018-04-28T17:52:51.370Z,1.53
2018-04-28T17:55:20.607Z,1.40
2018-04-28T17:57:48.966Z,1.77
2018-04-28T18:00:17.933Z,1.40
2018-04-28T18:02:47.371Z,1.20
2018-04-28T18:05:16.417Z,1.17
2018-04-28T18:07:44.785Z,2.00
2018-04-28T18:10:14.570Z,1.53
2018-04-28T18:12:43.623Z,1.73
2018-04-28T18:15:12.037Z,1.83
2018-04-28T18:17:40.889Z,1.90
2018-04-28T18:20:09.969Z,2.10
2018-04-28T18:22:39.289Z,2.40
2018-04-28T18:25:08.550Z,2.00
2018-04-28T18:27:38.106Z,1.90
2018-04-28T18:30:07.806Z,1.50
2018-04-28T18:32:37.955Z,1.70
2018-04-28T18:35:07.894Z,1.60
2018-04-28T18:37:39.103Z,1.53
2018-04-28T18:40:09.696Z,2.13
2018-04-28T18:42:39.347Z,2.30
2018-04-28T18:45:10.001Z,3.50
2018-04-28T18:47:38.366Z,3.00
2018-04-28T18:50:08.032Z,14.70
2018-04-28T18:52:36.426Z,15.20
2018-04-28T18:55:05.957Z,26.33
2018-04-28T18:57:35.488Z,12.87
2018-04-28T19:00:04.754Z,23.37
2018-04-28T19:02:35.302Z,16.63
2018-04-28T19:05:04.979Z,13.00
2018-04-28T19:07:34.982Z,11.97
2018-04-28T19:10:04.918Z,13.90
2018-04-28T19:12:36.278Z,10.37
2018-04-28T19:15:06.114Z,9.83
2018-04-28T19:17:35.182Z,9.03
2018-04-28T19:20:03.573Z,9.93
2018-04-28T19:22:33.569Z,10.07
2018-04-28T19:25:02.326Z,8.60
2018-04-28T19:27:31.592Z,8.40
2018-04-28T19:30:00.889Z,7.40
2018-04-28T19:32:29.762Z,7.07
2018-04-28T19:34:59.873Z,6.13
2018-04-28T19:37:29.266Z,7.10
2018-04-28T19:39:59.456Z,6.40
2018-04-28T19:42:29.381Z,6.47
2018-04-28T19:45:05.317Z,6.97
2018-04-28T19:47:34.564Z,6.37
2018-04-28T19:50:02.938Z,5.47
2018-04-28T19:52:31.786Z,6.33
2018-04-28T19:55:00.155Z,5.77
2018-04-28T19:57:28.815Z,5.67
2018-04-28T19:59:59.171Z,4.83
2018-04-28T20:02:27.629Z,4.97
2018-04-28T20:04:56.715Z,5.20
2018-04-28T20:07:25.134Z,4.90
2018-04-28T20:09:54.263Z,5.43
2018-04-28T20:12:24.039Z,5.40
2018-04-28T20:14:54.169Z,4.93
2018-04-28T20:17:24.827Z,4.60
2018-04-28T20:19:54.675Z,4.97
2018-04-28T20:36:28.993Z,4.60
2018-04-28T20:38:57.313Z,3.97
2018-04-28T20:41:25.713Z,3.70
2018-04-28T20:43:54.296Z,4.37
2018-04-28T20:46:35.517Z,4.10
2018-04-28T20:49:04.725Z,3.73
2018-04-28T20:51:33.073Z,3.97
2018-04-28T20:54:02.279Z,3.33
2018-04-28T20:56:30.663Z,3.70
2018-04-28T20:59:02.819Z,3.87
2018-04-28T21:01:31.239Z,3.70
2018-04-28T21:04:00.498Z,3.70
2018-04-28T21:09:05.328Z,3.27
2018-04-28T21:11:37.164Z,3.53
2018-04-28T21:14:06.363Z,3.37
2018-04-28T21:16:37.130Z,3.03
2018-04-28T21:19:07.243Z,3.33
2018-04-28T21:21:35.618Z,3.27
2018-04-28T21:24:05.091Z,3.20
2018-04-28T21:26:34.046Z,3.20
2018-04-28T21:29:04.119Z,3.40
2018-04-28T21:31:33.315Z,3.20
2018-04-28T21:34:03.361Z,3.30
2018-04-28T21:36:43.846Z,2.90
2018-04-28T21:39:13.235Z,3.37
2018-04-28T21:41:42.393Z,2.80
2018-04-28T21:44:11.418Z,2.67
2018-04-28T21:46:39.843Z,2.20
2018-04-28T21:49:09.318Z,2.53
2018-04-28T21:51:37.648Z,2.87
2018-04-28T21:54:05.982Z,3.37
2018-04-28T21:56:34.339Z,2.50
2018-04-28T21:59:03.503Z,3.10
2018-04-28T22:01:32.060Z,3.47
2018-04-28T22:04:05.398Z,3.40
2018-04-28T22:06:36.681Z,2.97
2018-04-28T22:09:05.627Z,2.57
2018-04-28T22:11:34.963Z,2.77
2018-04-28T22:14:04.836Z,3.20
2018-04-28T22:19:27.185Z,3.67
2018-04-28T22:21:56.430Z,2.67
2018-04-28T22:24:27.276Z,2.73
2018-04-28T22:26:59.024Z,2.60
2018-04-28T22:29:29.522Z,2.90
2018-04-28T22:31:58.757Z,2.80
2018-04-28T22:34:28.534Z,2.43
2018-04-28T22:37:04.412Z,2.50
2018-04-28T22:39:33.651Z,2.90
2018-04-28T22:42:03.767Z,2.90
2018-04-28T22:44:32.841Z,3.20
2018-04-28T22:47:03.313Z,2.60
2018-04-28T22:49:32.245Z,2.30
2018-04-28T22:52:01.533Z,2.10
2018-04-28T22:54:30.511Z,2.20
2018-04-28T22:57:03.711Z,2.20
2018-04-28T22:59:32.897Z,2.27
2018-04-28T23:02:01.343Z,2.20
2018-04-28T23:04:30.607Z,2.10
2018-04-28T23:07:00.019Z,1.70
2018-04-28T23:09:32.148Z,1.90
2018-04-28T23:12:01.049Z,2.30
2018-04-28T23:14:30.150Z,2.17
2018-04-28T23:17:13.982Z,2.03
2018-04-28T23:19:44.066Z,2.10
2018-04-28T23:22:17.271Z,2.03
2018-04-28T23:24:47.562Z,1.70
2018-04-28T23:27:25.626Z,1.57
2018-04-28T23:29:56.678Z,1.90
2018-04-28T23:32:25.070Z,1.80
2018-04-28T23:34:53.951Z,1.93
2018-04-28T23:37:22.727Z,1.90
2018-04-28T23:39:52.350Z,1.93
2018-04-28T23:42:23.686Z,2.10
2018-04-28T23:44:52.307Z,1.70
2018-04-28T23:47:20.665Z,1.90
2018-04-28T23:49:51.031Z,1.90
2018-04-28T23:52:20.673Z,2.03
2018-04-28T23:54:51.551Z,1.57
2018-04-28T23:57:20.607Z,2.30
2018-04-28T23:59:51.041Z,1.70
